Breckenridge, CO

7:23 PM MDT on October 24, 2014 (GMT -0600)
Copper Mountain | Change Station
CLOSE
Current Station
Airport
Location: Copper Mountain,
Elevation: 12073 ft
Nearby Weather Stations

Elev 12073 ft 39.48 °N, 106.15 °W | Updated 6 minutes ago

Clear
Clear
45 °F
Feels Like 37 °F
N
17
Wind Variable Wind from West

Today
High -- | Low -- °F
--% Chance of Precip.
Yesterday
High -- | Low -- °F
Precip. -- in
7:24 AM 6:12 PM
New Moon, 1% visible
Pressure 30.64 in
Visibility 10.0 miles
Clouds Clear
Windchill 37 °F
Dew Point 14 °F
Humidity 29%
Rainfall 0.00 in
Snow Depth 0 in , 2 in , 0 in
UV 0 out of 12
Pollen 3.20 out of 12
Air Quality Not available.
Flu Activity Sporadic
METAR KCCU 250117Z AUTO 26015KT 10SM CLR 07/M10 A3064 RMK AO2

More Conditions Fewer Conditions

Pressure 30.64 in
Visibility 10.0 miles
Clouds Clear
Windchill 37 °F
Dew Point 14 °F
Humidity 29%
Rainfall 0.00 in
Snow Depth 0 in , 2 in , 0 in
UV 0 out of 12
Pollen 3.20 out of 12
Air Quality Not available.
Flu Activity Sporadic
METAR KCCU 250117Z AUTO 26015KT 10SM CLR 07/M10 A3064 RMK AO2

More Conditions Fewer Conditions

10-Day Weather Forecast

Almanac

Astronomy

Oct. 24, 2014 Rise Set
Actual Time 7:24 AM MDT 6:12 PM MDT
Civil Twilight 6:56 AM MDT 6:40 PM MDT
Nautical Twilight 6:25 AM MDT 7:11 PM MDT
Astronomical Twilight 5:54 AM MDT 7:42 PM MDT
Moon 8:05 AM MDT (10/24) 6:55 PM MDT (10/24)
Length of Visible Light 11h 43m
Length of Day
10h 48m
Tomorrow will be 2m 22s shorter.
New Moon, 1% of the Moon is Illuminated
Today
New Moon
Oct 30
First Quarter
Nov 6
Full
Nov 14
Last Quarter
Nov 22
New

Today's Extremes

State Highs State Lows

Community

WunderPhotos

Upload Photos

1,764,741 photos uploaded!

WunderBlogs® & News

Nearby

Snow Depth

Station Depth Elevation
Fremont Pass 0 in 11400 ft
Loveland Basin 2 in 11400 ft
Jackwhacker Gulch 0 in 10960 ft
Mccoy Park 14 in 9480 ft
Ivanhoe 0 in 10400 ft

Earthquake Activity

City Distance Mag. Time & Date
No recent earthquake activity has been reported nearby.
Minimum magnitude displayed is 2.5.

Coastal Water Temperatures

Place Temperature
No Stations Reporting

Nearby Weather Stations